Madison, MN

9:44 AM CST on December 13, 2019 (GMT -0600)
Madison-Lac Qui Parle County

Weather History for KDXX - August, 2019

Change the Weather History Date:

Saturday, August 24, 2019

  Actual Average (WUND) Record (WUND)
Temperature  
Mean Temperature 68 °F -  
Max Temperature 78 °F - - (-1)
Min Temperature 59 °F - - (-1)
Cooling Degree Days 4    
Growing Degree Days 18 (Base 50)    
Moisture  
Dew Point 60 °F    
Average Humidity 77    
Maximum Humidity 100    
Minimum Humidity 53    
Precipitation  
Precipitation 0.00 in - - ()
Sea Level Pressure  
Sea Level Pressure 30.10 in    
Wind  
Wind Speed 9 mph (SE)    
Max Wind Speed 20 mph    
Max Gust Speed 28 mph    
Visibility 10 miles    
Events      
Averages and records for this station are not official NWS values.
T = Trace of Precipitation, MM = Missing Value Source: NWS Daily Summary

Daily Weather History Graph

Daily Weather History Graph

Search for Another Location

Airport or City:

Astronomy

Aug. 24, 2019 Rise Set
Actual Time 6:36 AM CDT 8:16 PM CDT
Civil Twilight 6:05 AM CDT 8:47 PM CDT
Nautical Twilight 5:28 AM CDT 9:24 PM CDT
Astronomical Twilight 4:47 AM CDT 10:05 PM CDT
Moon 12:25 AM CDT (8/24) 3:40 PM CDT (8/24)
Length of Visible Light 14h 41m
Length of Day
13h 39m
Last Quarter, 39% of the Moon is Illuminated
Aug 24
Last Quarter
Aug 30
New
Sep 5
First Quarter
Sep 13
Full
Sep 21
Last Quarter

Hourly Weather History & Observations

Time (CDT) Temp. Dew Point Humidity Pressure Visibility Wind Dir Wind Speed Gust Speed Precip Events Conditions
12:15 AM 64.4 °F 62.6 °F 94% 30.14 in 10.0 mi SE 5.8 mph - N/A   Clear
12:16 AM 64.4 °F 62.6 °F 94% 30.14 in 10.0 mi SE 5.8 mph - N/A   Clear
12:35 AM 64.4 °F 62.6 °F 94% 30.14 in 10.0 mi SE 5.8 mph - N/A   Clear
12:36 AM 64.4 °F 62.6 °F 94% 30.14 in 10.0 mi SE 5.8 mph - N/A   Clear
12:59 AM 64.4 °F 62.6 °F 94% 30.14 in 10.0 mi SSE 5.8 mph - N/A   Clear
1:16 AM 64.4 °F 62.6 °F 94% 30.14 in 10.0 mi SSE 5.8 mph - N/A   Clear
1:35 AM 64.4 °F 62.6 °F 94% 30.15 in 10.0 mi SSE 4.6 mph - N/A   Clear
1:36 AM 64.4 °F 62.6 °F 94% 30.14 in 10.0 mi SSE 4.6 mph - N/A   Clear
1:55 AM 62.6 °F 60.8 °F 94% 30.15 in 10.0 mi SSE 5.8 mph - N/A   Clear
2:15 AM 62.6 °F 60.8 °F 94% 30.14 in 10.0 mi SSE 5.8 mph - N/A   Clear
2:19 AM 62.6 °F 60.8 °F 94% 30.15 in 10.0 mi SSE 5.8 mph - N/A   Clear
2:38 AM 62.6 °F 60.8 °F 94% 30.14 in 10.0 mi SSE 4.6 mph - N/A   Clear
2:56 AM 62.6 °F 60.8 °F 94% 30.15 in 10.0 mi SSE 4.6 mph - N/A   Clear
3:15 AM 62.6 °F 60.8 °F 94% 30.14 in 10.0 mi SSE 4.6 mph - N/A   Clear
3:16 AM 62.6 °F 60.8 °F 94% 30.14 in 10.0 mi SSE 4.6 mph - N/A   Clear
3:35 AM 60.8 °F 60.8 °F 100% 30.15 in 10.0 mi SSE 5.8 mph - N/A   Clear
4:16 AM 60.8 °F 59.0 °F 94% 30.15 in 10.0 mi SSE 4.6 mph - N/A   Clear
4:35 AM 60.8 °F 59.0 °F 94% 30.14 in 10.0 mi SE 4.6 mph - N/A   Clear
4:36 AM 60.8 °F 59.0 °F 94% 30.15 in 10.0 mi SE 4.6 mph - N/A   Clear
4:55 AM 60.8 °F 57.2 °F 88% 30.15 in 10.0 mi SE 4.6 mph - N/A   Clear
4:56 AM 60.8 °F 57.2 °F 88% 30.15 in 10.0 mi SSE 4.6 mph - N/A   Clear
5:15 AM 60.8 °F 57.2 °F 88% 30.15 in 10.0 mi SE 5.8 mph - N/A   Clear
5:20 AM 60.8 °F 57.2 °F 88% 30.15 in 10.0 mi SE 6.9 mph - N/A   Clear
5:37 AM 59.0 °F 57.2 °F 94% 30.15 in 10.0 mi SE 4.6 mph - N/A   Clear
5:55 AM 59.0 °F 57.2 °F 94% 30.16 in 10.0 mi SE 5.8 mph - N/A   Clear
6:15 AM 59.0 °F 57.2 °F 94% 30.16 in 10.0 mi SE 5.8 mph - N/A   Clear
6:35 AM 59.0 °F 57.2 °F 94% 30.15 in 10.0 mi SE 6.9 mph - N/A   Clear
6:36 AM 59.0 °F 57.2 °F 94% 30.15 in 10.0 mi SE 6.9 mph - N/A   Clear
6:58 AM 59.0 °F 57.2 °F 94% 30.15 in 10.0 mi SE 6.9 mph - N/A   Clear
7:17 AM 60.8 °F 59.0 °F 94% 30.15 in 10.0 mi SE 8.1 mph - N/A   Clear
7:35 AM 60.8 °F 59.0 °F 94% 30.15 in 10.0 mi SE 8.1 mph - N/A   Clear
7:36 AM 60.8 °F 59.0 °F 94% 30.15 in 10.0 mi SE 8.1 mph - N/A   Clear
7:55 AM 62.6 °F 60.8 °F 94% 30.15 in 10.0 mi SE 8.1 mph - N/A   Clear
8:18 AM 64.4 °F 60.8 °F 88% 30.14 in 10.0 mi SE 8.1 mph - N/A   Clear
8:36 AM 64.4 °F 60.8 °F 88% 30.14 in 10.0 mi SE 11.5 mph - N/A   Clear
8:55 AM 66.2 °F 60.8 °F 83% 30.14 in 10.0 mi SE 11.5 mph 16.1 mph N/A   Clear
8:56 AM 66.2 °F 60.8 °F 83% 30.14 in 10.0 mi SSE 11.5 mph - N/A   Clear
9:15 AM 66.2 °F 60.8 °F 83% 30.14 in 10.0 mi SSE 11.5 mph 18.4 mph N/A   Clear
9:16 AM 66.2 °F 60.8 °F 83% 30.14 in 10.0 mi SSE 10.4 mph 18.4 mph N/A   Clear
9:35 AM 68.0 °F 60.8 °F 78% 30.14 in 10.0 mi SSE 11.5 mph - N/A   Clear
9:57 AM 69.8 °F 60.8 °F 73% 30.13 in 10.0 mi SSE 13.8 mph 19.6 mph N/A   Clear
10:15 AM 71.6 °F 60.8 °F 69% 30.13 in 10.0 mi SSE 13.8 mph 19.6 mph N/A   Clear
10:35 AM 71.6 °F 60.8 °F 69% 30.13 in 10.0 mi SSE 17.3 mph - N/A   Clear
10:36 AM 71.6 °F 60.8 °F 69% 30.13 in 10.0 mi SSE 16.1 mph - N/A   Clear
10:55 AM 73.4 °F 60.8 °F 65% 30.12 in 10.0 mi SSE 12.7 mph 20.7 mph N/A   Clear
10:56 AM 73.4 °F 60.8 °F 65% 30.13 in 10.0 mi SSE 11.5 mph 20.7 mph N/A   Clear
11:18 AM 73.4 °F 60.8 °F 65% 30.12 in 10.0 mi SSE 17.3 mph 20.7 mph N/A   Clear
11:37 AM 75.2 °F 62.6 °F 65% 30.11 in 10.0 mi SSE 16.1 mph 24.2 mph N/A   Clear
11:56 AM 75.2 °F 62.6 °F 65% 30.11 in 10.0 mi SSE 15.0 mph - N/A   Clear
12:15 PM 75.2 °F 62.6 °F 65% 30.11 in 10.0 mi SE 16.1 mph 19.6 mph N/A   Clear
12:16 PM 75.2 °F 62.6 °F 65% 30.11 in 10.0 mi SSE 17.3 mph - N/A   Clear
12:35 PM 75.2 °F 60.8 °F 61% 30.10 in 10.0 mi SSE 17.3 mph 24.2 mph N/A   Clear
12:39 PM 75.2 °F 62.6 °F 65% 30.10 in 10.0 mi SSE 15.0 mph 24.2 mph N/A   Clear
12:57 PM 77.0 °F 62.6 °F 61% 30.09 in 10.0 mi SSE 19.6 mph 25.3 mph N/A   Clear
1:16 PM 77.0 °F 62.6 °F 61% 30.09 in 10.0 mi SSE 17.3 mph 24.2 mph N/A   Clear
1:35 PM 77.0 °F 60.8 °F 57% 30.08 in 10.0 mi SSE 19.6 mph 26.5 mph N/A   Clear
1:36 PM 77.0 °F 60.8 °F 57% 30.08 in 10.0 mi SSE 18.4 mph 26.5 mph N/A   Clear
1:55 PM 78.8 °F 60.8 °F 54% 30.08 in 10.0 mi South 18.4 mph 26.5 mph N/A   Clear
2:18 PM 78.8 °F 60.8 °F 54% 30.08 in 10.0 mi SSE 15.0 mph 24.2 mph N/A   Clear
2:36 PM 77.0 °F 59.0 °F 54% 30.08 in 10.0 mi SSE 17.3 mph 24.2 mph N/A   Clear
2:55 PM 77.0 °F 60.8 °F 57% 30.08 in 10.0 mi SSE 13.8 mph 23.0 mph N/A   Clear
3:15 PM 77.0 °F 60.8 °F 57% 30.07 in 10.0 mi SSE 16.1 mph 23.0 mph N/A   Clear
3:16 PM 77.0 °F 60.8 °F 57% 30.07 in 10.0 mi SSE 15.0 mph 23.0 mph N/A   Clear
3:39 PM 77.0 °F 59.0 °F 54% 30.07 in 10.0 mi SE 19.6 mph 27.6 mph N/A   Clear
3:56 PM 77.0 °F 60.8 °F 57% 30.06 in 10.0 mi SSE 16.1 mph - N/A   Clear
4:16 PM 77.0 °F 60.8 °F 57% 30.07 in 10.0 mi SSE 15.0 mph 20.7 mph N/A   Scattered Clouds
4:35 PM 77.0 °F 59.0 °F 54% 30.06 in 10.0 mi SSE 17.3 mph 25.3 mph N/A   Scattered Clouds
4:59 PM 77.0 °F 59.0 °F 54% 30.07 in 10.0 mi SSE 15.0 mph 25.3 mph N/A   Scattered Clouds
5:17 PM 75.2 °F 60.8 °F 61% 30.07 in 10.0 mi SSE 13.8 mph 20.7 mph N/A   Scattered Clouds
5:36 PM 75.2 °F 57.2 °F 53% 30.07 in 10.0 mi SE 16.1 mph 23.0 mph N/A   Scattered Clouds
5:55 PM 77.0 °F 59.0 °F 54% 30.07 in 10.0 mi SSE 16.1 mph 21.9 mph N/A   Clear
5:56 PM 77.0 °F 59.0 °F 54% 30.07 in 10.0 mi SSE 19.6 mph 23.0 mph N/A   Clear
6:15 PM 75.2 °F 57.2 °F 53% 30.07 in 10.0 mi SSE 15.0 mph 21.9 mph N/A   Clear
6:37 PM 73.4 °F 57.2 °F 57% 30.06 in 10.0 mi SSE 13.8 mph 19.6 mph N/A   Clear
6:55 PM 73.4 °F 57.2 °F 57% 30.06 in 10.0 mi SE 16.1 mph 21.9 mph N/A   Clear
7:15 PM 73.4 °F 57.2 °F 57% 30.06 in 10.0 mi SE 12.7 mph 17.3 mph N/A   Clear
7:35 PM 71.6 °F 57.2 °F 60% 30.05 in 10.0 mi SE 12.7 mph - N/A   Clear
7:36 PM 71.6 °F 57.2 °F 60% 30.05 in 10.0 mi SE 11.5 mph 17.3 mph N/A   Clear
7:59 PM 69.8 °F 57.2 °F 64% 30.05 in 10.0 mi SE 9.2 mph - N/A   Clear
8:16 PM 69.8 °F 57.2 °F 64% 30.05 in 10.0 mi SE 8.1 mph - N/A   Clear
8:36 PM 68.0 °F 57.2 °F 68% 30.05 in 10.0 mi SE 8.1 mph - N/A   Clear
8:55 PM 66.2 °F 59.0 °F 78% 30.05 in 10.0 mi SE 6.9 mph - N/A   Clear
9:15 PM 66.2 °F 59.0 °F 78% 30.05 in 10.0 mi SE 5.8 mph - N/A   Clear
9:19 PM 66.2 °F 59.0 °F 78% 30.05 in 10.0 mi SE 6.9 mph - N/A   Clear
9:37 PM 64.4 °F 59.0 °F 83% 30.05 in 10.0 mi SE 8.1 mph - N/A   Clear
9:56 PM 64.4 °F 59.0 °F 83% 30.05 in 10.0 mi SE 8.1 mph - N/A   Clear
10:16 PM 64.4 °F 59.0 °F 83% 30.05 in 10.0 mi SE 5.8 mph - N/A   Clear
10:35 PM 62.6 °F 57.2 °F 82% 30.04 in 10.0 mi SE 6.9 mph - N/A   Clear
10:36 PM 62.6 °F 57.2 °F 82% 30.05 in 10.0 mi SE 6.9 mph - N/A   Clear
10:58 PM 62.6 °F 57.2 °F 82% 30.04 in 10.0 mi SE 8.1 mph - N/A   Clear
11:16 PM 62.6 °F 57.2 °F 82% 30.04 in 10.0 mi SE 8.1 mph - N/A   Clear
11:35 PM 62.6 °F 57.2 °F 82% 30.03 in 10.0 mi SE 9.2 mph - N/A   Clear
11:55 PM 62.6 °F 57.2 °F 82% 30.03 in 10.0 mi SSE 8.1 mph - N/A   Clear
11:56 PM 62.6 °F 57.2 °F 82% 30.03 in 10.0 mi SSE 8.1 mph - N/A   Clear